Time;durP1;ratioP1;P1;durP2;ratioP2;P2;SDS_P1;SDS_P2;PMS_P1;PMS_P2;Temp;Humidity;BMP_temperature;BMP_pressure;BME280_temperature;BME280_humidity;BME280_pressure;Samples;Min_cycle;Max_cycle;Signal;HPM_P1;HPM_P2
2024/01/14 00:00:18;;;;;;;33.53;3.83;;;5.80;99.90;;;;;;5024126;28;21079;-46
2024/01/14 00:02:44;;;;;;;28.27;3.90;;;5.70;99.90;;;;;;5024070;28;20207;-50
2024/01/14 00:05:09;;;;;;;23.95;3.70;;;5.60;99.90;;;;;;5024174;28;20187;-44
2024/01/14 00:07:36;;;;;;;18.90;3.10;;;5.60;99.90;;;;;;5023765;28;20208;-46
2024/01/14 00:10:03;;;;;;;23.02;3.53;;;5.60;99.90;;;;;;5023553;28;20191;-48
2024/01/14 00:12:30;;;;;;;25.77;3.45;;;5.60;99.90;;;;;;5023696;28;20180;-45
2024/01/14 00:14:55;;;;;;;28.27;3.80;;;5.50;99.90;;;;;;5023477;28;20192;-47
2024/01/14 00:17:21;;;;;;;19.10;2.75;;;5.50;99.90;;;;;;5023967;28;20187;-49
2024/01/14 00:19:47;;;;;;;25.52;3.05;;;5.50;99.90;;;;;;5023459;28;20582;-48
2024/01/14 00:22:16;;;;;;;15.85;2.65;;;5.40;99.90;;;;;;5023341;28;20192;-51
2024/01/14 00:24:42;;;;;;;8.80;1.65;;;5.40;99.90;;;;;;5023788;28;20831;-43
2024/01/14 00:27:08;;;;;;;21.00;2.83;;;5.30;99.90;;;;;;5023594;28;20659;-49
2024/01/14 00:29:36;;;;;;;13.30;2.15;;;5.20;99.90;;;;;;5016016;28;20192;-45
2024/01/14 00:32:03;;;;;;;17.27;2.28;;;5.20;99.90;;;;;;5023435;28;20196;-49
2024/01/14 00:34:28;;;;;;;16.08;2.67;;;5.10;99.90;;;;;;5023432;28;20572;-48
2024/01/14 00:36:54;;;;;;;17.67;2.33;;;5.10;99.90;;;;;;5016968;28;20203;-48
2024/01/14 00:39:20;;;;;;;17.48;2.45;;;5.10;99.90;;;;;;5022839;28;20196;-48
2024/01/14 00:41:47;;;;;;;13.25;2.33;;;5.10;99.90;;;;;;5023735;28;20695;-44
2024/01/14 00:44:13;;;;;;;9.98;1.85;;;5.10;99.90;;;;;;5023317;28;20208;-42
2024/01/14 00:46:39;;;;;;;21.92;2.53;;;5.20;99.90;;;;;;5019241;28;20275;-45
2024/01/14 00:49:05;;;;;;;18.88;2.03;;;5.10;99.90;;;;;;5017351;28;20735;-45
2024/01/14 00:51:30;;;;;;;25.02;2.15;;;5.10;99.90;;;;;;5022929;28;20306;-48
2024/01/14 00:53:56;;;;;;;17.42;2.30;;;5.10;99.90;;;;;;5016754;28;20195;-44
2024/01/14 00:56:22;;;;;;;15.25;2.00;;;5.10;99.90;;;;;;5022822;28;20242;-44
2024/01/14 00:58:48;;;;;;;19.70;2.08;;;5.10;99.90;;;;;;5023948;28;20218;-49
2024/01/14 01:01:14;;;;;;;30.02;2.50;;;5.10;99.90;;;;;;5018929;28;20250;-47
2024/01/14 01:03:40;;;;;;;13.95;1.85;;;5.10;99.90;;;;;;5022858;28;20211;-47
2024/01/14 01:06:07;;;;;;;15.15;2.25;;;5.10;99.90;;;;;;5018665;28;20257;-49
2024/01/14 01:08:33;;;;;;;24.65;2.80;;;5.10;99.90;;;;;;5022628;28;20341;-44
2024/01/14 01:10:59;;;;;;;14.07;1.92;;;5.10;99.90;;;;;;5016463;28;20664;-46
2024/01/14 01:13:25;;;;;;;17.55;2.33;;;5.10;99.90;;;;;;5019299;28;20541;-46
2024/01/14 01:15:50;;;;;;;11.52;2.03;;;5.10;99.90;;;;;;5022901;28;20184;-45
2024/01/14 01:18:16;;;;;;;11.50;1.85;;;5.10;99.90;;;;;;5022830;28;20274;-47
2024/01/14 01:20:42;;;;;;;22.38;2.53;;;5.10;99.90;;;;;;5022680;28;20242;-46
2024/01/14 01:23:08;;;;;;;15.27;2.03;;;5.10;99.90;;;;;;5022548;28;20211;-48
2024/01/14 01:25:34;;;;;;;21.25;2.17;;;5.00;99.90;;;;;;5022062;28;20188;-52
2024/01/14 01:28:00;;;;;;;22.13;2.47;;;5.00;99.90;;;;;;5022831;28;20196;-43
2024/01/14 01:30:26;;;;;;;17.17;2.30;;;5.00;99.90;;;;;;5022150;28;20187;-47
2024/01/14 01:32:51;;;;;;;16.30;2.55;;;5.00;99.90;;;;;;5022251;28;20218;-43
2024/01/14 01:35:17;;;;;;;25.52;3.03;;;5.10;99.90;;;;;;5022727;28;20191;-51
2024/01/14 01:37:44;;;;;;;20.67;2.40;;;5.00;99.90;;;;;;5022316;28;20194;-54
2024/01/14 01:40:11;;;;;;;27.40;2.70;;;5.00;99.90;;;;;;5017787;28;20200;-46
2024/01/14 01:42:37;;;;;;;26.25;3.15;;;5.00;99.90;;;;;;5022414;28;20238;-44
2024/01/14 01:45:03;;;;;;;16.70;2.45;;;5.00;99.90;;;;;;5021287;28;20203;-46
2024/01/14 01:47:30;;;;;;;12.27;2.35;;;4.90;99.90;;;;;;5022254;28;20200;-43
2024/01/14 01:49:57;;;;;;;20.23;2.40;;;4.90;99.90;;;;;;5021603;28;20202;-47
2024/01/14 01:52:24;;;;;;;28.83;3.08;;;4.80;99.90;;;;;;5018572;28;20577;-45
2024/01/14 01:54:51;;;;;;;19.58;2.80;;;4.80;99.90;;;;;;5018771;28;20613;-41
2024/01/14 01:57:18;;;;;;;17.15;2.50;;;4.80;99.90;;;;;;5015148;28;20254;-47
2024/01/14 01:59:45;;;;;;;17.38;2.33;;;4.80;99.90;;;;;;5014724;28;20238;-41
2024/01/14 02:02:12;;;;;;;18.98;2.33;;;4.80;99.90;;;;;;5017692;28;21691;-45
2024/01/14 02:04:39;;;;;;;17.45;2.65;;;4.90;99.90;;;;;;5021766;28;20214;-52
2024/01/14 02:07:06;;;;;;;13.73;2.40;;;4.80;99.90;;;;;;5021572;28;20226;-44
2024/01/14 02:09:33;;;;;;;14.40;2.10;;;4.80;99.90;;;;;;5017637;28;20586;-44
2024/01/14 02:12:02;;;;;;;17.10;2.55;;;4.70;99.90;;;;;;5012294;28;20180;-45
2024/01/14 02:14:28;;;;;;;19.35;3.00;;;4.60;99.90;;;;;;5021547;28;20706;-47
2024/01/14 02:16:53;;;;;;;18.02;2.50;;;4.50;99.90;;;;;;5021749;28;20191;-49
2024/01/14 02:19:19;;;;;;;18.83;2.47;;;4.50;99.90;;;;;;5021609;28;20195;-52
2024/01/14 02:21:48;;;;;;;17.92;2.17;;;4.40;99.90;;;;;;5021149;28;20266;-44
2024/01/14 02:24:27;;;;;;;17.67;2.65;;;4.40;99.90;;;;;;5018114;28;20215;-48
2024/01/14 02:26:53;;;;;;;23.58;2.92;;;4.30;99.90;;;;;;5021388;28;20266;-42
2024/01/14 02:29:20;;;;;;;22.80;2.97;;;4.40;99.90;;;;;;5021585;28;20554;-45
2024/01/14 02:31:47;;;;;;;16.75;2.67;;;4.40;99.90;;;;;;5004025;28;20188;-46
2024/01/14 02:34:13;;;;;;;18.35;2.70;;;4.40;99.90;;;;;;5021518;28;20573;-43
2024/01/14 02:36:39;;;;;;;20.83;2.65;;;4.50;99.90;;;;;;5021298;28;20662;-46
2024/01/14 02:39:05;;;;;;;21.48;3.08;;;4.40;99.90;;;;;;5021287;28;20302;-47
2024/01/14 02:41:32;;;;;;;15.35;2.47;;;4.50;99.90;;;;;;5017774;28;20261;-47
2024/01/14 02:43:58;;;;;;;23.98;3.28;;;4.50;99.90;;;;;;5021021;28;20211;-46
2024/01/14 02:46:24;;;;;;;29.10;3.50;;;4.40;99.90;;;;;;5020979;28;20652;-47
2024/01/14 02:48:50;;;;;;;18.90;3.15;;;4.40;99.90;;;;;;5021183;28;20226;-46
2024/01/14 02:51:16;;;;;;;24.52;3.08;;;4.40;99.90;;;;;;5020517;28;20204;-47
2024/01/14 02:53:42;;;;;;;39.53;3.75;;;4.40;99.90;;;;;;5021514;28;20188;-47
2024/01/14 02:56:12;;;;;;;19.67;3.30;;;4.40;99.90;;;;;;5020700;28;20194;-43
2024/01/14 02:58:38;;;;;;;28.17;3.38;;;4.40;99.90;;;;;;5020915;28;20682;-46
2024/01/14 03:01:05;;;;;;;20.70;2.95;;;4.30;99.90;;;;;;5020515;28;20595;-46
2024/01/14 03:03:31;;;;;;;24.52;3.83;;;4.40;99.90;;;;;;5020538;28;20307;-44
2024/01/14 03:05:57;;;;;;;23.65;3.22;;;4.30;99.90;;;;;;5020946;28;20270;-46
2024/01/14 03:08:23;;;;;;;29.13;3.45;;;4.30;99.90;;;;;;5020983;28;20299;-50
2024/01/14 03:10:49;;;;;;;23.88;3.50;;;4.20;99.90;;;;;;4990048;28;20655;-47
2024/01/14 03:13:16;;;;;;;24.73;3.05;;;4.20;99.90;;;;;;5020499;28;20309;-45
2024/01/14 03:15:42;;;;;;;23.08;2.85;;;4.20;99.90;;;;;;5020419;28;20675;-46
2024/01/14 03:18:08;;;;;;;21.95;3.10;;;4.20;99.90;;;;;;5021040;28;20294;-47
2024/01/14 03:20:34;;;;;;;24.63;3.40;;;4.20;99.90;;;;;;5020994;28;20206;-48
2024/01/14 03:23:00;;;;;;;21.77;3.20;;;4.20;99.90;;;;;;5020865;28;22345;-46
2024/01/14 03:25:26;;;;;;;20.65;3.10;;;4.20;99.90;;;;;;5020148;28;20252;-47
2024/01/14 03:27:52;;;;;;;20.50;3.17;;;4.20;99.90;;;;;;5020847;28;20202;-49
2024/01/14 03:30:18;;;;;;;27.60;3.35;;;4.20;99.90;;;;;;5020555;28;20270;-44
2024/01/14 03:32:44;;;;;;;26.02;3.05;;;4.20;99.90;;;;;;5020865;28;20211;-45
2024/01/14 03:35:10;;;;;;;27.70;3.63;;;4.20;99.90;;;;;;5020451;28;20255;-43
2024/01/14 03:37:36;;;;;;;22.60;3.60;;;4.20;99.90;;;;;;5020969;28;20208;-48
2024/01/14 03:40:03;;;;;;;17.08;3.05;;;4.20;99.90;;;;;;5020684;28;20184;-44
2024/01/14 03:42:29;;;;;;;26.10;3.45;;;4.20;99.90;;;;;;5017137;28;20593;-52
2024/01/14 03:44:56;;;;;;;26.52;3.50;;;4.20;99.90;;;;;;5020137;28;21183;-45
2024/01/14 03:47:22;;;;;;;23.88;3.47;;;4.20;99.90;;;;;;5014392;28;21155;-49
2024/01/14 03:49:48;;;;;;;21.67;3.03;;;4.20;99.90;;;;;;5020383;28;20207;-48
2024/01/14 03:52:14;;;;;;;28.95;3.53;;;4.30;99.90;;;;;;5020518;28;20242;-50
2024/01/14 03:54:40;;;;;;;16.48;3.05;;;4.30;99.90;;;;;;5020652;28;20562;-45
2024/01/14 03:57:05;;;;;;;18.30;3.00;;;4.40;99.90;;;;;;5013424;28;20228;-42
2024/01/14 03:59:31;;;;;;;23.48;3.33;;;4.30;99.90;;;;;;5020521;28;20218;-44
2024/01/14 04:01:57;;;;;;;24.15;3.30;;;4.40;99.90;;;;;;5020511;28;20665;-45
2024/01/14 04:04:23;;;;;;;18.13;2.83;;;4.40;99.90;;;;;;5020208;28;20432;-50
2024/01/14 04:06:49;;;;;;;20.73;2.78;;;4.40;99.90;;;;;;5012687;28;20192;-47
2024/01/14 04:09:15;;;;;;;26.63;3.63;;;4.40;99.90;;;;;;5023046;28;20271;-48
2024/01/14 04:11:41;;;;;;;21.20;3.40;;;4.40;99.90;;;;;;5024193;28;20200;-44
2024/01/14 04:14:07;;;;;;;19.58;3.00;;;4.40;99.90;;;;;;5024094;28;20215;-47
2024/01/14 04:16:37;;;;;;;22.48;3.33;;;4.30;99.90;;;;;;5019036;28;20199;-44
2024/01/14 04:19:03;;;;;;;28.92;2.95;;;4.30;99.90;;;;;;5023646;28;20282;-41
2024/01/14 04:21:29;;;;;;;16.38;2.80;;;4.20;99.90;;;;;;5023430;28;20219;-45
2024/01/14 04:23:55;;;;;;;22.23;3.60;;;4.20;99.90;;;;;;5017125;28;21158;-45
2024/01/14 04:26:22;;;;;;;29.08;4.00;;;4.30;99.90;;;;;;5019610;28;20192;-40
2024/01/14 04:28:52;;;;;;;26.42;3.00;;;4.30;99.90;;;;;;5023220;28;20194;-48
2024/01/14 04:31:18;;;;;;;31.23;3.53;;;4.30;99.90;;;;;;5023543;28;20192;-43
2024/01/14 04:33:45;;;;;;;25.77;3.50;;;4.30;99.90;;;;;;5023499;28;21767;-44
2024/01/14 04:36:11;;;;;;;15.65;3.15;;;4.30;99.90;;;;;;5020184;28;20196;-45
2024/01/14 04:38:37;;;;;;;32.00;3.45;;;4.30;99.90;;;;;;5023202;28;20770;-47
2024/01/14 04:41:04;;;;;;;37.90;4.43;;;4.30;99.90;;;;;;5018836;28;20194;-50
2024/01/14 04:43:30;;;;;;;27.15;3.88;;;4.30;99.90;;;;;;5023480;28;20212;-46
2024/01/14 04:45:55;;;;;;;27.17;4.70;;;4.30;99.90;;;;;;5022923;28;20192;-44
2024/01/14 04:48:21;;;;;;;30.45;4.85;;;4.30;99.90;;;;;;5023562;28;20191;-45
2024/01/14 04:50:47;;;;;;;29.48;4.50;;;4.30;99.90;;;;;;5022850;28;20194;-46
2024/01/14 04:53:13;;;;;;;29.83;5.50;;;4.30;99.90;;;;;;5023138;28;20215;-47
2024/01/14 04:55:39;;;;;;;30.50;4.60;;;4.30;99.90;;;;;;5022985;28;20192;-49
2024/01/14 04:58:05;;;;;;;19.20;4.38;;;4.40;99.90;;;;;;5019037;28;20236;-42
2024/01/14 05:00:31;;;;;;;32.72;5.35;;;4.40;99.90;;;;;;5022706;28;20198;-45
2024/01/14 05:02:57;;;;;;;26.27;4.90;;;4.40;99.90;;;;;;5022889;28;20278;-49
2024/01/14 05:05:23;;;;;;;22.17;4.32;;;4.40;99.90;;;;;;5023039;28;20198;-48
2024/01/14 05:07:49;;;;;;;26.58;4.03;;;4.40;99.90;;;;;;4974729;28;20245;-45
2024/01/14 05:10:15;;;;;;;20.67;3.00;;;4.40;99.90;;;;;;5022768;28;20702;-47
2024/01/14 05:12:41;;;;;;;23.55;3.30;;;4.40;99.90;;;;;;5022662;28;20188;-43
2024/01/14 05:15:07;;;;;;;25.95;3.28;;;4.40;99.90;;;;;;5022833;28;20250;-49
2024/01/14 05:17:34;;;;;;;23.63;3.15;;;4.30;99.90;;;;;;5022469;28;20266;-44
2024/01/14 05:20:00;;;;;;;30.75;4.10;;;4.30;99.90;;;;;;5020677;28;20262;-47
2024/01/14 05:22:26;;;;;;;26.67;3.70;;;4.20;99.90;;;;;;5022596;28;20196;-47
2024/01/14 05:24:52;;;;;;;16.98;3.05;;;4.20;99.90;;;;;;5017601;28;20216;-49
2024/01/14 05:27:18;;;;;;;17.55;3.20;;;4.10;99.90;;;;;;5022635;28;20192;-45
2024/01/14 05:29:44;;;;;;;20.30;3.20;;;4.20;99.90;;;;;;5022627;28;20184;-44
2024/01/14 05:32:15;;;;;;;26.60;3.38;;;4.10;99.90;;;;;;5016953;28;20409;-45
2024/01/14 05:34:41;;;;;;;21.00;3.05;;;4.10;99.90;;;;;;5021991;28;20188;-47
2024/01/14 05:37:08;;;;;;;14.32;3.13;;;4.10;99.90;;;;;;5022483;28;20778;-46
2024/01/14 05:39:34;;;;;;;21.65;3.67;;;4.00;99.90;;;;;;5022182;28;20666;-43
2024/01/14 05:42:00;;;;;;;22.10;3.45;;;4.00;99.90;;;;;;5021831;28;20192;-47
2024/01/14 05:44:26;;;;;;;18.23;3.60;;;4.00;99.90;;;;;;5018213;28;21312;-48
2024/01/14 05:46:55;;;;;;;18.83;3.80;;;4.00;99.90;;;;;;5021910;28;20191;-52
2024/01/14 05:49:21;;;;;;;23.58;3.63;;;4.00;99.90;;;;;;5022082;28;20188;-44
2024/01/14 05:51:47;;;;;;;25.48;4.75;;;4.00;99.90;;;;;;5020702;28;20432;-45
2024/01/14 05:54:14;;;;;;;19.02;3.83;;;4.00;99.90;;;;;;5018346;28;20202;-47
2024/01/14 05:56:40;;;;;;;19.80;3.80;;;4.00;99.90;;;;;;5021907;28;20587;-44
2024/01/14 05:59:06;;;;;;;21.63;4.20;;;4.00;99.90;;;;;;5021674;28;20199;-45
2024/01/14 06:01:32;;;;;;;18.15;3.90;;;4.00;99.90;;;;;;5021981;28;20184;-45
2024/01/14 06:03:58;;;;;;;21.13;3.88;;;4.10;99.90;;;;;;5021147;28;20782;-50
2024/01/14 06:06:24;;;;;;;24.15;3.90;;;4.10;99.90;;;;;;5021849;28;20256;-43
2024/01/14 06:08:49;;;;;;;18.95;3.10;;;4.20;99.90;;;;;;5021887;28;20203;-47
2024/01/14 06:11:16;;;;;;;17.63;3.60;;;4.20;99.90;;;;;;5021747;28;20184;-46
2024/01/14 06:13:42;;;;;;;20.65;4.68;;;4.20;99.90;;;;;;5021044;28;20196;-47
2024/01/14 06:16:08;;;;;;;25.08;4.85;;;4.20;99.90;;;;;;5021476;28;20258;-45
2024/01/14 06:18:34;;;;;;;25.50;4.68;;;4.30;99.90;;;;;;5021745;28;20195;-41
2024/01/14 06:21:01;;;;;;;28.35;4.53;;;4.30;99.90;;;;;;5021482;28;20628;-49
2024/01/14 06:23:28;;;;;;;26.15;4.75;;;4.30;99.90;;;;;;5016455;28;20211;-42
2024/01/14 06:25:54;;;;;;;23.08;4.60;;;4.30;99.90;;;;;;5020311;28;20748;-44
2024/01/14 06:28:20;;;;;;;20.98;3.78;;;4.30;99.90;;;;;;5021301;28;20246;-42
2024/01/14 06:30:46;;;;;;;23.02;3.95;;;4.40;99.90;;;;;;5017073;28;20550;-50
2024/01/14 06:33:12;;;;;;;24.88;3.88;;;4.30;99.90;;;;;;5013961;28;20245;-43
2024/01/14 06:35:38;;;;;;;26.92;4.07;;;4.40;99.90;;;;;;5021358;28;20747;-49
2024/01/14 06:38:04;;;;;;;17.80;3.35;;;4.30;99.90;;;;;;5016194;28;20279;-49
2024/01/14 06:40:30;;;;;;;25.77;3.42;;;4.30;99.90;;;;;;5014565;28;20196;-43
2024/01/14 06:42:56;;;;;;;24.02;4.22;;;4.20;99.90;;;;;;5021026;28;20253;-49
2024/01/14 06:45:22;;;;;;;33.22;4.43;;;4.20;99.90;;;;;;5021120;28;20188;-48
2024/01/14 06:47:48;;;;;;;32.22;4.57;;;4.10;99.90;;;;;;5020633;28;20203;-43
2024/01/14 06:50:14;;;;;;;26.65;4.40;;;4.10;99.90;;;;;;5021250;28;20188;-45
2024/01/14 06:52:40;;;;;;;20.85;4.88;;;4.10;99.90;;;;;;5019618;28;20187;-46
2024/01/14 06:55:06;;;;;;;34.78;5.43;;;4.10;99.90;;;;;;5014543;28;20200;-41
2024/01/14 06:57:32;;;;;;;30.58;5.43;;;4.00;99.90;;;;;;5020814;28;20847;-49
2024/01/14 07:00:00;;;;;;;20.98;5.03;;;4.00;99.90;;;;;;5021138;28;20188;-42
2024/01/14 07:02:26;;;;;;;27.20;5.25;;;4.00;99.90;;;;;;5019887;28;20194;-44
2024/01/14 07:04:52;;;;;;;31.17;5.80;;;4.00;99.90;;;;;;5020108;28;20212;-47
2024/01/14 07:07:18;;;;;;;37.92;6.85;;;4.00;99.90;;;;;;5020946;28;20199;-46
2024/01/14 07:09:44;;;;;;;29.58;6.38;;;4.00;99.90;;;;;;5020488;28;20188;-46
2024/01/14 07:12:10;;;;;;;20.52;4.57;;;4.10;99.90;;;;;;5010975;28;22118;-42
2024/01/14 07:14:36;;;;;;;28.33;4.93;;;4.10;99.90;;;;;;5020884;28;20191;-45
2024/01/14 07:17:02;;;;;;;26.73;4.30;;;4.10;99.90;;;;;;5020671;28;20204;-46
2024/01/14 07:19:27;;;;;;;24.27;4.60;;;4.10;99.90;;;;;;5020589;28;20195;-42
2024/01/14 07:21:54;;;;;;;31.90;4.40;;;4.10;99.90;;;;;;5019940;28;20308;-42
2024/01/14 07:24:19;;;;;;;28.77;4.10;;;4.10;99.90;;;;;;4996224;28;20215;-46
2024/01/14 07:26:45;;;;;;;22.83;3.33;;;4.10;99.90;;;;;;5020507;28;20296;-48
2024/01/14 07:29:11;;;;;;;30.80;3.97;;;4.10;99.90;;;;;;5020464;28;20249;-47
2024/01/14 07:31:37;;;;;;;29.05;4.65;;;4.10;99.90;;;;;;5019942;28;20192;-46
2024/01/14 07:34:03;;;;;;;23.08;3.63;;;4.10;99.90;;;;;;5020963;28;20563;-45
2024/01/14 07:36:29;;;;;;;23.83;3.92;;;4.10;99.90;;;;;;4999911;28;20842;-40
2024/01/14 07:38:55;;;;;;;26.42;3.70;;;4.10;99.90;;;;;;5020780;28;20196;-47
2024/01/14 07:41:21;;;;;;;22.73;3.25;;;4.20;99.90;;;;;;5015419;28;21657;-48
2024/01/14 07:43:47;;;;;;;28.58;3.85;;;4.20;99.90;;;;;;5022723;28;20204;-45
2024/01/14 07:46:13;;;;;;;20.33;2.85;;;4.20;99.90;;;;;;5024235;28;20649;-41
2024/01/14 07:48:39;;;;;;;16.45;2.67;;;4.20;99.90;;;;;;5024301;28;20778;-44
2024/01/14 07:51:05;;;;;;;22.00;2.97;;;4.20;99.90;;;;;;5002480;28;21245;-44
2024/01/14 07:53:31;;;;;;;17.67;3.00;;;4.20;99.90;;;;;;5023910;28;20198;-41
2024/01/14 07:55:57;;;;;;;23.98;3.13;;;4.20;99.90;;;;;;5023967;28;20188;-42
2024/01/14 07:58:24;;;;;;;24.35;3.35;;;4.10;99.90;;;;;;5024056;28;20238;-47
2024/01/14 08:00:50;;;;;;;25.25;3.05;;;4.00;99.90;;;;;;5021173;28;20751;-43
2024/01/14 08:03:16;;;;;;;26.13;3.92;;;4.00;99.90;;;;;;5024517;28;20206;-45
2024/01/14 08:05:42;;;;;;;22.58;3.22;;;4.00;99.90;;;;;;5018833;28;20307;-46
2024/01/14 08:08:08;;;;;;;22.67;3.60;;;4.00;99.90;;;;;;5018672;28;20287;-43
2024/01/14 08:10:35;;;;;;;26.35;3.20;;;4.00;99.90;;;;;;5020539;28;20282;-41
2024/01/14 08:13:01;;;;;;;20.45;3.42;;;3.90;99.90;;;;;;5023947;28;20180;-45
2024/01/14 08:15:27;;;;;;;27.50;4.15;;;3.90;99.90;;;;;;5021463;28;20188;-44
2024/01/14 08:17:53;;;;;;;22.90;4.35;;;3.90;99.90;;;;;;5024015;28;20184;-42
2024/01/14 08:20:19;;;;;;;24.00;4.75;;;3.90;99.90;;;;;;5023784;28;20188;-43
2024/01/14 08:22:45;;;;;;;22.80;4.72;;;3.90;99.90;;;;;;5018522;28;20199;-45
2024/01/14 08:25:11;;;;;;;19.33;4.82;;;4.00;99.90;;;;;;5015118;28;20216;-43
2024/01/14 08:27:38;;;;;;;21.65;4.40;;;4.00;99.90;;;;;;5020851;28;20196;-41
2024/01/14 08:30:07;;;;;;;27.52;3.65;;;4.00;99.90;;;;;;5023610;28;20250;-47
2024/01/14 08:32:34;;;;;;;22.38;3.47;;;4.00;99.90;;;;;;5006031;28;20227;-40
2024/01/14 08:35:00;;;;;;;24.35;3.60;;;4.00;99.90;;;;;;5023479;28;20202;-47
2024/01/14 08:37:29;;;;;;;18.08;3.92;;;3.90;99.90;;;;;;5014809;28;20558;-44
2024/01/14 08:39:55;;;;;;;21.35;4.07;;;3.90;99.90;;;;;;5022094;28;20537;-43
2024/01/14 08:42:21;;;;;;;22.17;3.50;;;4.00;99.90;;;;;;5023388;28;20207;-42
2024/01/14 08:44:47;;;;;;;20.65;4.15;;;4.00;99.90;;;;;;5023040;28;20215;-44
2024/01/14 08:47:13;;;;;;;18.05;3.83;;;4.00;99.90;;;;;;5023243;28;20183;-52
2024/01/14 08:49:40;;;;;;;21.65;4.50;;;4.00;99.90;;;;;;5023058;28;20176;-45
2024/01/14 08:52:07;;;;;;;19.35;4.20;;;4.10;99.90;;;;;;5022021;28;20271;-45
2024/01/14 08:54:34;;;;;;;27.08;4.97;;;4.10;99.90;;;;;;5022841;28;20401;-47
2024/01/14 08:57:00;;;;;;;23.85;4.70;;;4.10;99.90;;;;;;5022866;28;20231;-43
2024/01/14 08:59:27;;;;;;;21.17;4.63;;;4.10;99.90;;;;;;5020326;28;20196;-48
2024/01/14 09:01:53;;;;;;;27.95;4.25;;;4.20;99.90;;;;;;4989310;28;20192;-51
2024/01/14 09:04:19;;;;;;;21.58;3.67;;;4.20;99.90;;;;;;5018687;28;20681;-42
2024/01/14 09:06:46;;;;;;;23.42;3.22;;;4.20;99.90;;;;;;5022382;28;20564;-46
2024/01/14 09:09:12;;;;;;;19.35;3.47;;;4.20;99.90;;;;;;5014839;28;20285;-46
2024/01/14 09:11:41;;;;;;;19.23;3.42;;;4.20;99.90;;;;;;5022586;28;20192;-49
2024/01/14 09:14:07;;;;;;;23.55;3.13;;;4.20;99.90;;;;;;5022712;28;20192;-49
2024/01/14 09:16:33;;;;;;;18.27;3.55;;;4.20;99.90;;;;;;5022318;28;20254;-41
2024/01/14 09:18:59;;;;;;;16.25;3.10;;;4.20;99.90;;;;;;5022895;28;20192;-47
2024/01/14 09:21:25;;;;;;;18.13;2.83;;;4.30;99.90;;;;;;5022107;28;20191;-44
2024/01/14 09:23:51;;;;;;;16.65;3.13;;;4.30;99.90;;;;;;5022843;28;20223;-48
2024/01/14 09:26:17;;;;;;;19.30;2.67;;;4.30;99.90;;;;;;5014632;28;21292;-46
2024/01/14 09:28:43;;;;;;;23.23;3.10;;;4.30;99.90;;;;;;5020858;28;20188;-46
2024/01/14 09:31:08;;;;;;;21.40;2.97;;;4.30;99.90;;;;;;5022286;28;20554;-43
2024/01/14 09:33:34;;;;;;;18.65;3.08;;;4.30;99.90;;;;;;5021820;28;20195;-49
2024/01/14 09:36:08;;;;;;;15.20;2.97;;;4.40;99.90;;;;;;5022164;28;20279;-45
2024/01/14 09:38:35;;;;;;;15.48;3.13;;;4.40;99.90;;;;;;5022034;28;20275;-47
2024/01/14 09:41:25;;;;;;;13.55;2.88;;;4.40;99.90;;;;;;5019119;28;20203;-50
2024/01/14 09:43:51;;;;;;;12.25;3.17;;;4.50;99.90;;;;;;5022506;28;20278;-46
2024/01/14 09:46:18;;;;;;;14.00;3.10;;;4.50;99.90;;;;;;5016860;28;20196;-41
2024/01/14 09:48:47;;;;;;;14.23;2.50;;;4.50;99.90;;;;;;5021968;28;20192;-46
2024/01/14 09:51:14;;;;;;;18.02;3.20;;;4.60;99.90;;;;;;5021882;28;20637;-44
2024/01/14 09:53:41;;;;;;;19.75;3.42;;;4.60;99.90;;;;;;5021682;28;20198;-43
2024/01/14 09:56:10;;;;;;;17.98;3.05;;;4.70;99.90;;;;;;5021429;28;20188;-42
2024/01/14 09:58:36;;;;;;;14.40;3.28;;;4.70;99.90;;;;;;5002230;28;20207;-43
2024/01/14 10:01:04;;;;;;;22.35;3.50;;;4.80;99.90;;;;;;5001916;28;20185;-42
2024/01/14 10:03:30;;;;;;;22.25;3.58;;;4.80;99.90;;;;;;5001589;28;20212;-45
2024/01/14 10:05:57;;;;;;;22.55;3.15;;;4.90;99.90;;;;;;5001395;28;20667;-44
2024/01/14 10:08:23;;;;;;;17.50;3.17;;;4.90;99.90;;;;;;5001668;28;20193;-41
2024/01/14 10:10:52;;;;;;;17.23;3.28;;;4.90;99.90;;;;;;5001535;28;20188;-51
2024/01/14 10:13:21;;;;;;;18.30;3.60;;;4.90;99.90;;;;;;5001243;28;20613;-45
2024/01/14 10:15:48;;;;;;;17.20;3.63;;;5.00;99.90;;;;;;5001964;28;20246;-42
2024/01/14 10:18:17;;;;;;;19.55;3.40;;;5.00;99.90;;;;;;5001419;28;20270;-43
2024/01/14 10:20:43;;;;;;;15.70;3.38;;;5.10;99.90;;;;;;5000406;28;20268;-42
2024/01/14 10:23:09;;;;;;;16.75;3.20;;;5.10;99.90;;;;;;5001546;28;20200;-43
2024/01/14 10:25:35;;;;;;;14.48;2.88;;;5.10;99.90;;;;;;5001124;28;20644;-46
2024/01/14 10:28:04;;;;;;;17.55;3.60;;;5.20;99.90;;;;;;5001692;28;20300;-46
2024/01/14 10:30:30;;;;;;;12.50;3.30;;;5.30;99.90;;;;;;4999359;28;20263;-42
2024/01/14 10:32:56;;;;;;;14.55;3.13;;;5.40;99.90;;;;;;4999769;28;20577;-48
2024/01/14 10:35:25;;;;;;;17.67;3.80;;;5.50;99.90;;;;;;4999187;28;20657;-44
2024/01/14 10:37:51;;;;;;;10.75;2.83;;;5.50;99.90;;;;;;4999879;28;20952;-47
2024/01/14 10:40:20;;;;;;;19.10;3.40;;;5.60;99.90;;;;;;5000103;28;20193;-45
2024/01/14 10:42:46;;;;;;;20.23;4.00;;;5.60;99.90;;;;;;4998615;28;20597;-44
2024/01/14 10:45:12;;;;;;;18.55;3.67;;;5.60;99.90;;;;;;5000411;28;20215;-50
2024/01/14 10:47:44;;;;;;;17.17;3.50;;;5.60;99.90;;;;;;4984921;28;20184;-49
2024/01/14 10:50:12;;;;;;;19.88;3.17;;;5.60;99.90;;;;;;4999618;28;20222;-45
2024/01/14 10:52:40;;;;;;;11.35;3.05;;;5.60;99.90;;;;;;4999580;28;20188;-46
2024/01/14 10:55:21;;;;;;;19.42;3.20;;;5.70;99.90;;;;;;4999141;28;20200;-46
2024/01/14 10:57:51;;;;;;;20.83;3.35;;;5.70;99.90;;;;;;5012552;28;20277;-45
2024/01/14 11:00:18;;;;;;;26.85;3.60;;;5.80;99.90;;;;;;5019260;28;20568;-50
2024/01/14 11:02:45;;;;;;;20.90;2.95;;;5.90;99.90;;;;;;5019310;28;20188;-43
2024/01/14 11:05:12;;;;;;;12.52;2.90;;;6.00;99.90;;;;;;5014423;28;20215;-45
2024/01/14 11:07:38;;;;;;;23.20;3.33;;;6.10;99.90;;;;;;5019193;28;20391;-47
2024/01/14 11:10:07;;;;;;;12.45;3.17;;;6.20;99.90;;;;;;5018654;28;20253;-44
2024/01/14 11:12:57;;;;;;;14.02;3.00;;;6.20;99.90;;;;;;5018836;28;20172;-43
2024/01/14 11:15:32;;;;;;;13.30;2.83;;;6.30;99.90;;;;;;5019367;28;20203;-44
2024/01/14 11:17:58;;;;;;;13.27;2.55;;;6.30;99.90;;;;;;5019552;28;20234;-40
2024/01/14 11:20:28;;;;;;;13.77;2.63;;;6.40;99.90;;;;;;5024376;28;20257;-43
2024/01/14 11:22:55;;;;;;;13.07;2.20;;;6.40;99.90;;;;;;5024507;28;20667;-46
2024/01/14 11:25:33;;;;;;;15.65;3.10;;;6.50;99.90;;;;;;5024299;28;20207;-43
2024/01/14 11:28:04;;;;;;;13.85;2.67;;;6.50;99.90;;;;;;5023998;28;20190;-45
2024/01/14 11:30:49;;;;;;;9.75;2.55;;;6.40;99.90;;;;;;5024223;28;20184;-52
2024/01/14 11:33:42;;;;;;;18.73;2.80;;;6.40;99.90;;;;;;4990984;28;20194;-43
2024/01/14 11:36:09;;;;;;;11.93;2.50;;;6.40;99.90;;;;;;5023905;28;20192;-48
2024/01/14 11:38:58;;;;;;;16.17;2.95;;;6.40;99.90;;;;;;5024218;28;20187;-45
2024/01/14 11:41:33;;;;;;;15.18;3.17;;;6.40;99.90;;;;;;5023837;28;20652;-43
2024/01/14 11:44:03;;;;;;;8.45;2.63;;;6.40;99.90;;;;;;5024301;28;20299;-46
2024/01/14 11:46:42;;;;;;;11.98;2.63;;;6.40;99.90;;;;;;5018443;28;20222;-47
2024/01/14 11:49:16;;;;;;;17.48;2.78;;;6.50;99.90;;;;;;5024314;28;20176;-43
2024/01/14 11:52:02;;;;;;;12.85;2.60;;;6.50;99.90;;;;;;5023758;28;20195;-51
2024/01/14 11:54:31;;;;;;;9.52;2.28;;;6.50;99.90;;;;;;5023743;28;20187;-40
2024/01/14 11:56:57;;;;;;;12.63;2.28;;;6.50;99.90;;;;;;5023861;28;20247;-43
2024/01/14 11:59:23;;;;;;;13.57;2.33;;;6.40;99.90;;;;;;5023759;28;20271;-45
2024/01/14 12:01:49;;;;;;;12.60;3.13;;;6.40;99.90;;;;;;5024193;28;20283;-43
2024/01/14 12:04:15;;;;;;;14.93;2.80;;;6.40;99.90;;;;;;5023797;28;20203;-46
2024/01/14 12:06:47;;;;;;;13.32;2.50;;;6.40;99.90;;;;;;5019006;28;20207;-45
2024/01/14 12:09:14;;;;;;;7.57;2.13;;;6.50;99.90;;;;;;5023735;28;20199;-45
2024/01/14 12:11:41;;;;;;;13.60;2.60;;;6.60;99.90;;;;;;5023451;28;20333;-50
2024/01/14 12:14:08;;;;;;;14.98;2.65;;;6.80;99.90;;;;;;5017910;28;20729;-44
2024/01/14 12:16:35;;;;;;;12.55;2.50;;;6.90;99.90;;;;;;5023217;28;20210;-51
2024/01/14 12:19:12;;;;;;;12.13;2.67;;;7.10;99.90;;;;;;5019293;28;20222;-51
2024/01/14 12:21:38;;;;;;;10.88;2.65;;;7.10;99.90;;;;;;5023109;28;20352;-45
2024/01/14 12:24:04;;;;;;;16.80;2.75;;;7.20;99.90;;;;;;5023581;28;21290;-48
2024/01/14 12:26:30;;;;;;;12.38;2.97;;;7.30;99.90;;;;;;5022858;28;20283;-47
2024/01/14 12:28:56;;;;;;;10.82;2.75;;;7.40;99.90;;;;;;5022776;28;20200;-45
2024/01/14 12:31:25;;;;;;;10.85;2.78;;;7.40;99.90;;;;;;5017193;28;20180;-42
2024/01/14 12:33:52;;;;;;;10.98;2.70;;;7.40;99.90;;;;;;5018529;28;20192;-46
2024/01/14 12:36:18;;;;;;;13.18;2.58;;;7.30;99.90;;;;;;5023293;28;20675;-48
2024/01/14 12:38:44;;;;;;;10.60;2.35;;;7.30;99.90;;;;;;5022668;28;20633;-47
2024/01/14 12:41:13;;;;;;;14.07;3.00;;;7.20;99.90;;;;;;5023207;28;20652;-48
2024/01/14 12:43:41;;;;;;;7.80;2.30;;;7.20;99.90;;;;;;5019458;28;20240;-50
2024/01/14 12:46:07;;;;;;;9.55;2.58;;;7.10;99.90;;;;;;5022413;28;20271;-44